createdAt,value
2018-05-17T00:01:38.802Z,72.90
2018-05-17T00:04:07.222Z,73.10
2018-05-17T00:06:37.047Z,74.00
2018-05-17T00:09:06.558Z,73.10
2018-05-17T00:11:34.742Z,73.80
2018-05-17T00:14:03.612Z,73.30
2018-05-17T00:16:32.762Z,73.10
2018-05-17T00:19:01.810Z,73.30
2018-05-17T00:21:30.013Z,73.30
2018-05-17T00:23:58.456Z,73.40
2018-05-17T00:26:26.882Z,73.10
2018-05-17T00:28:55.287Z,72.60
2018-05-17T00:31:24.659Z,74.20
2018-05-17T00:33:53.188Z,74.10
2018-05-17T00:36:21.608Z,74.50
2018-05-17T00:38:49.757Z,75.20
2018-05-17T00:41:18.023Z,75.80
2018-05-17T00:43:46.766Z,75.00
2018-05-17T00:46:14.919Z,76.60
2018-05-17T00:48:45.039Z,75.00
2018-05-17T00:51:14.224Z,75.70
2018-05-17T00:53:43.585Z,75.50
2018-05-17T00:56:12.178Z,76.10
2018-05-17T00:58:40.811Z,76.70
2018-05-17T01:01:09.775Z,76.30
2018-05-17T01:03:38.931Z,76.30
2018-05-17T01:06:07.142Z,76.30
2018-05-17T01:08:35.745Z,77.00
2018-05-17T01:11:04.413Z,76.80
2018-05-17T01:13:32.835Z,75.70
2018-05-17T01:16:01.003Z,76.50
2018-05-17T01:18:29.886Z,77.10
2018-05-17T01:20:58.379Z,76.90
2018-05-17T01:23:27.238Z,78.60
2018-05-17T01:25:55.846Z,78.10
2018-05-17T01:28:25.346Z,77.50
2018-05-17T01:30:53.872Z,78.00
2018-05-17T01:33:22.699Z,77.60
2018-05-17T01:35:51.689Z,77.30
2018-05-17T01:38:27.582Z,77.20
2018-05-17T01:40:55.774Z,77.10
2018-05-17T01:43:24.634Z,77.70
2018-05-17T01:45:53.904Z,77.80
2018-05-17T01:48:22.054Z,77.80
2018-05-17T01:50:51.842Z,77.20
2018-05-17T01:53:20.023Z,77.20
2018-05-17T01:55:50.205Z,77.00
2018-05-17T01:58:19.234Z,76.60
2018-05-17T02:00:47.878Z,76.30
2018-05-17T02:03:16.707Z,77.10
2018-05-17T02:05:45.858Z,76.80
2018-05-17T02:08:14.039Z,75.30
2018-05-17T02:10:42.910Z,75.60
2018-05-17T02:13:11.091Z,75.90
2018-05-17T02:15:40.171Z,76.80
2018-05-17T02:18:08.815Z,77.20
2018-05-17T02:20:36.963Z,77.50
2018-05-17T02:23:05.654Z,76.20
2018-05-17T02:25:34.861Z,76.80
2018-05-17T02:28:03.778Z,76.10
2018-05-17T02:30:32.693Z,76.00
2018-05-17T02:33:01.843Z,75.30
2018-05-17T02:35:30.986Z,76.10
2018-05-17T02:38:00.219Z,75.80
2018-05-17T02:40:28.885Z,75.70
2018-05-17T02:42:57.473Z,74.30
2018-05-17T02:45:26.551Z,74.40
2018-05-17T02:47:54.985Z,75.00
2018-05-17T02:50:23.139Z,75.60
2018-05-17T02:52:51.527Z,76.80
2018-05-17T02:55:20.145Z,76.80
2018-05-17T02:57:48.669Z,75.80
2018-05-17T03:00:17.825Z,75.00
2018-05-17T03:02:46.974Z,73.80
2018-05-17T03:05:15.761Z,73.40
2018-05-17T03:07:44.003Z,74.10
2018-05-17T03:10:12.411Z,74.30
2018-05-17T03:12:41.039Z,75.10
2018-05-17T03:15:09.498Z,75.10
2018-05-17T03:17:37.695Z,75.70
2018-05-17T03:20:06.550Z,76.30
2018-05-17T03:22:35.374Z,75.70
2018-05-17T03:25:03.982Z,74.10
2018-05-17T03:27:32.176Z,74.90
2018-05-17T03:30:01.641Z,75.50
2018-05-17T03:32:29.743Z,75.20
2018-05-17T03:34:58.750Z,75.90
2018-05-17T03:37:27.727Z,76.00
2018-05-17T03:39:56.623Z,75.90
2018-05-17T03:42:26.067Z,75.90
2018-05-17T03:44:54.522Z,75.90
2018-05-17T03:47:23.662Z,75.60
2018-05-17T03:49:52.763Z,74.50
2018-05-17T03:52:21.869Z,73.70
2018-05-17T03:54:50.047Z,73.70
2018-05-17T03:57:19.227Z,73.10
2018-05-17T03:59:47.660Z,73.50
2018-05-17T04:02:27.783Z,74.00
2018-05-17T04:05:08.691Z,72.50
2018-05-17T04:07:36.807Z,71.70
2018-05-17T04:10:04.989Z,72.50
2018-05-17T04:12:33.531Z,71.80
2018-05-17T04:15:02.071Z,71.00
2018-05-17T04:17:30.737Z,72.00
2018-05-17T04:19:59.122Z,73.60
2018-05-17T04:22:27.986Z,71.50
2018-05-17T04:24:56.628Z,71.40
2018-05-17T04:27:24.781Z,69.40
2018-05-17T04:29:52.958Z,70.00
2018-05-17T04:32:21.362Z,70.00
2018-05-17T04:34:49.790Z,71.00
2018-05-17T04:37:18.943Z,70.10
2018-05-17T04:39:47.142Z,70.50
2018-05-17T04:42:16.482Z,70.00
2018-05-17T04:44:44.702Z,70.00
2018-05-17T04:47:14.703Z,68.80
2018-05-17T04:49:43.138Z,68.70
2018-05-17T04:52:11.664Z,67.90
2018-05-17T04:54:40.161Z,68.30
2018-05-17T04:57:08.714Z,69.10
2018-05-17T04:59:36.861Z,68.80
2018-05-17T05:02:06.171Z,69.10
2018-05-17T05:04:34.814Z,69.00
2018-05-17T05:07:03.966Z,66.80
2018-05-17T05:09:33.923Z,67.00
2018-05-17T05:12:02.007Z,66.90
2018-05-17T05:14:30.483Z,66.30
2018-05-17T05:16:59.009Z,66.20
2018-05-17T05:19:29.506Z,67.10
2018-05-17T05:21:57.686Z,67.00
2018-05-17T05:24:26.434Z,66.20
2018-05-17T05:26:54.618Z,65.40
2018-05-17T05:29:22.807Z,64.80
2018-05-17T05:31:52.255Z,65.50
2018-05-17T05:34:20.881Z,64.20
2018-05-17T05:36:49.268Z,65.50
2018-05-17T05:39:17.895Z,66.20
2018-05-17T05:41:46.295Z,64.30
2018-05-17T05:44:14.739Z,64.20
2018-05-17T05:46:44.111Z,63.40
2018-05-17T05:49:12.683Z,63.80
2018-05-17T05:51:41.501Z,62.80
2018-05-17T05:54:10.430Z,63.50
2018-05-17T05:56:39.806Z,63.50
2018-05-17T05:59:08.959Z,63.50
2018-05-17T06:01:37.133Z,63.30
2018-05-17T06:04:06.207Z,61.90
2018-05-17T06:06:34.812Z,62.70
2018-05-17T06:09:02.999Z,63.30
2018-05-17T06:11:31.796Z,62.60
2018-05-17T06:14:01.227Z,62.60
2018-05-17T06:16:29.996Z,63.40
2018-05-17T06:18:58.626Z,60.60
2018-05-17T06:21:27.663Z,61.60
2018-05-17T06:23:55.854Z,61.20
2018-05-17T06:26:24.519Z,62.80
2018-05-17T06:28:53.043Z,63.60
2018-05-17T06:31:22.717Z,61.70
2018-05-17T06:33:52.809Z,62.00
2018-05-17T06:36:21.847Z,59.80
2018-05-17T06:38:50.039Z,60.30
2018-05-17T06:41:18.702Z,59.90
2018-05-17T06:43:46.908Z,61.00
2018-05-17T06:46:15.407Z,60.10
2018-05-17T06:48:43.599Z,58.80
2018-05-17T06:51:12.138Z,59.40
2018-05-17T06:53:40.806Z,59.80
2018-05-17T06:56:10.065Z,58.90
2018-05-17T06:58:38.483Z,59.50
2018-05-17T07:01:07.350Z,59.70
2018-05-17T07:03:35.497Z,57.90
2018-05-17T07:06:04.506Z,57.90
2018-05-17T07:08:33.523Z,58.90
2018-05-17T07:11:02.157Z,57.60
2018-05-17T07:13:31.190Z,56.90
2018-05-17T07:15:59.626Z,56.50
2018-05-17T07:18:28.332Z,57.10
2018-05-17T07:20:56.676Z,58.30
2018-05-17T07:23:24.829Z,57.90
2018-05-17T07:25:53.833Z,58.10
2018-05-17T07:28:22.254Z,56.30
2018-05-17T07:30:50.883Z,55.60
2018-05-17T07:33:19.027Z,55.80
2018-05-17T07:35:48.342Z,56.60
2018-05-17T07:38:17.177Z,56.50
2018-05-17T07:40:45.791Z,56.90
2018-05-17T07:43:14.962Z,54.40
2018-05-17T07:45:43.942Z,55.70
2018-05-17T07:48:12.653Z,55.10
2018-05-17T07:50:41.806Z,56.10
2018-05-17T07:53:10.233Z,55.70
2018-05-17T07:55:38.757Z,56.20
2018-05-17T07:58:07.178Z,56.40
2018-05-17T08:00:35.720Z,56.00
2018-05-17T08:03:04.747Z,56.00
2018-05-17T08:05:33.899Z,56.10
2018-05-17T08:08:03.576Z,56.80
2018-05-17T08:10:32.527Z,55.20
2018-05-17T08:13:01.451Z,55.80
2018-05-17T08:15:29.638Z,55.90
2018-05-17T08:17:57.886Z,56.40
2018-05-17T08:20:27.325Z,57.00
2018-05-17T08:22:56.490Z,56.60
2018-05-17T08:25:25.134Z,56.90
2018-05-17T08:27:53.869Z,57.60
2018-05-17T08:30:22.904Z,56.20
2018-05-17T08:32:51.303Z,57.10
2018-05-17T08:35:19.931Z,55.40
2018-05-17T08:37:48.355Z,55.90
2018-05-17T08:40:16.982Z,55.10
2018-05-17T08:42:45.495Z,55.20
2018-05-17T08:45:14.138Z,55.20
2018-05-17T08:47:42.701Z,55.60
2018-05-17T08:50:11.227Z,55.50
2018-05-17T08:52:39.376Z,54.50
2018-05-17T08:55:07.958Z,54.90
2018-05-17T08:57:36.998Z,55.40
2018-05-17T09:00:07.209Z,56.20
2018-05-17T09:02:36.432Z,55.40
2018-05-17T09:05:05.607Z,54.80
2018-05-17T09:07:34.040Z,54.20
2018-05-17T09:10:02.530Z,55.60
2018-05-17T09:12:30.986Z,55.90
2018-05-17T09:14:59.619Z,56.40
2018-05-17T09:17:27.822Z,55.80
2018-05-17T09:19:56.459Z,55.20
2018-05-17T09:22:25.807Z,55.70
2018-05-17T09:24:54.023Z,55.90
2018-05-17T09:27:23.076Z,55.50
2018-05-17T09:29:51.681Z,54.70
2018-05-17T09:32:20.863Z,54.20
2018-05-17T09:34:49.495Z,54.20
2018-05-17T09:37:18.019Z,54.70
2018-05-17T09:39:46.440Z,53.40
2018-05-17T09:42:14.591Z,54.10
2018-05-17T09:44:43.874Z,54.70
2018-05-17T09:47:12.749Z,54.50
2018-05-17T09:49:41.574Z,55.20
2018-05-17T09:52:09.767Z,55.10
2018-05-17T09:54:37.942Z,54.00
2018-05-17T09:57:06.838Z,53.70
2018-05-17T09:59:35.049Z,53.90
2018-05-17T10:02:03.550Z,53.70
2018-05-17T10:04:32.119Z,54.60
2018-05-17T10:07:02.091Z,54.40
2018-05-17T10:09:31.039Z,53.70
2018-05-17T10:11:59.219Z,54.60
2018-05-17T10:14:28.205Z,54.70
2018-05-17T10:16:56.795Z,52.80
2018-05-17T10:19:26.091Z,52.60
2018-05-17T10:21:55.409Z,53.20
2018-05-17T10:24:23.766Z,54.30
2018-05-17T10:26:51.910Z,53.90
2018-05-17T10:29:20.697Z,53.00
2018-05-17T10:31:48.995Z,53.50
2018-05-17T10:34:17.660Z,52.60
2018-05-17T10:36:45.806Z,53.10
2018-05-17T10:39:14.814Z,53.40
2018-05-17T10:41:43.030Z,52.40
2018-05-17T10:44:11.623Z,53.40
2018-05-17T10:46:40.079Z,52.40
2018-05-17T10:49:08.501Z,51.70
2018-05-17T10:51:36.645Z,51.60
2018-05-17T10:54:05.135Z,52.30
2018-05-17T10:56:33.517Z,51.30
2018-05-17T10:59:01.711Z,53.10
2018-05-17T11:01:30.293Z,49.50
2018-05-17T11:03:58.714Z,50.00
2018-05-17T11:06:26.869Z,49.50
2018-05-17T11:08:55.078Z,50.10
2018-05-17T11:11:23.875Z,50.70
2018-05-17T11:13:52.294Z,51.50
2018-05-17T11:16:20.535Z,48.70
2018-05-17T11:18:49.947Z,49.90
2018-05-17T11:21:19.115Z,49.80
2018-05-17T11:23:47.755Z,49.50
2018-05-17T11:26:16.686Z,50.00
2018-05-17T11:28:44.886Z,49.60
2018-05-17T11:31:13.071Z,48.40
2018-05-17T11:33:41.666Z,48.80
2018-05-17T11:36:11.310Z,49.10
2018-05-17T11:38:39.519Z,48.50
2018-05-17T11:41:09.614Z,47.90
2018-05-17T11:43:38.558Z,48.10
2018-05-17T11:46:07.710Z,48.50
2018-05-17T11:48:36.690Z,47.40
2018-05-17T11:51:04.975Z,47.40
2018-05-17T11:53:33.620Z,47.70
2018-05-17T11:56:02.662Z,47.80
2018-05-17T11:58:31.608Z,45.50
2018-05-17T12:01:00.538Z,44.20
2018-05-17T12:03:28.774Z,44.90
2018-05-17T12:05:58.022Z,46.90
2018-05-17T12:08:27.172Z,46.40
2018-05-17T12:10:56.311Z,47.20
2018-05-17T12:13:24.646Z,47.30
2018-05-17T12:15:53.793Z,46.60
2018-05-17T12:18:22.005Z,46.00
2018-05-17T12:20:50.426Z,44.60
2018-05-17T12:23:18.579Z,45.80
2018-05-17T12:25:47.268Z,45.70
2018-05-17T12:28:16.425Z,43.70
2018-05-17T12:30:44.622Z,44.10
2018-05-17T12:33:13.459Z,44.20
2018-05-17T12:35:42.507Z,42.90
2018-05-17T12:38:11.464Z,42.90
2018-05-17T12:40:39.885Z,44.60
2018-05-17T12:43:08.306Z,43.40
2018-05-17T12:45:36.919Z,44.90
2018-05-17T12:48:05.357Z,44.10
2018-05-17T12:50:34.196Z,43.80
2018-05-17T12:53:02.427Z,43.20
2018-05-17T12:55:32.906Z,43.10
2018-05-17T12:58:02.386Z,43.00
2018-05-17T13:00:31.537Z,41.80
2018-05-17T13:02:59.714Z,42.30
2018-05-17T13:05:28.174Z,41.80
2018-05-17T13:07:57.103Z,42.10
2018-05-17T13:10:25.810Z,43.20
2018-05-17T13:12:54.852Z,42.60
2018-05-17T13:15:24.050Z,41.40
2018-05-17T13:17:53.087Z,42.30
2018-05-17T13:20:22.249Z,42.70
2018-05-17T13:22:50.471Z,41.50
2018-05-17T13:25:18.691Z,40.80
2018-05-17T13:27:49.383Z,43.00
2018-05-17T13:30:17.739Z,42.90
2018-05-17T13:32:46.326Z,41.80
2018-05-17T13:35:14.970Z,42.20
2018-05-17T13:37:43.394Z,40.80
2018-05-17T13:40:11.812Z,41.40
2018-05-17T13:42:41.073Z,41.50
2018-05-17T13:45:09.455Z,41.20
2018-05-17T13:47:38.388Z,41.80
2018-05-17T13:50:06.855Z,38.20
2018-05-17T13:52:35.999Z,38.20
2018-05-17T13:55:04.428Z,38.00
2018-05-17T13:57:32.850Z,38.40
2018-05-17T14:00:01.585Z,38.30
2018-05-17T14:02:30.246Z,39.30
2018-05-17T14:04:58.966Z,39.90
2018-05-17T14:07:27.334Z,40.50
2018-05-17T14:09:56.419Z,39.70
2018-05-17T14:12:24.562Z,39.00
2018-05-17T14:14:53.157Z,37.90
2018-05-17T14:17:21.542Z,39.40
2018-05-17T14:19:49.734Z,38.30
2018-05-17T14:22:18.439Z,38.70
2018-05-17T14:24:49.438Z,39.60
2018-05-17T14:27:19.117Z,38.00
2018-05-17T14:29:47.757Z,38.00
2018-05-17T14:32:16.180Z,37.40
2018-05-17T14:34:44.330Z,35.50
2018-05-17T14:37:13.962Z,35.30
2018-05-17T14:39:43.218Z,36.20
2018-05-17T14:42:11.639Z,36.20
2018-05-17T14:44:40.688Z,36.70
2018-05-17T14:47:08.890Z,36.80
2018-05-17T14:49:37.426Z,35.20
2018-05-17T14:52:05.574Z,34.60
2018-05-17T14:54:33.759Z,32.20
2018-05-17T14:57:02.710Z,30.70
2018-05-17T14:59:33.706Z,31.50
2018-05-17T15:04:33.205Z,32.50
2018-05-17T15:07:02.397Z,32.70
2018-05-17T15:09:30.582Z,32.70
2018-05-17T15:11:58.774Z,33.00
2018-05-17T15:14:27.242Z,33.70
2018-05-17T15:16:56.015Z,32.10
2018-05-17T15:19:25.988Z,33.20
2018-05-17T15:21:54.507Z,33.20
2018-05-17T15:24:23.017Z,33.00
2018-05-17T15:26:51.542Z,32.80
2018-05-17T15:29:20.416Z,31.80
2018-05-17T15:31:49.882Z,32.70
2018-05-17T15:34:18.407Z,32.60
2018-05-17T15:36:46.599Z,32.70
2018-05-17T15:39:15.238Z,33.50
2018-05-17T15:41:43.496Z,31.20
2018-05-17T15:44:11.663Z,32.00
2018-05-17T15:46:40.307Z,32.30
2018-05-17T15:49:08.830Z,33.20
2018-05-17T15:51:37.218Z,31.60
2018-05-17T15:54:05.398Z,32.30
2018-05-17T15:56:33.583Z,32.80
2018-05-17T15:59:02.270Z,32.70
2018-05-17T16:01:30.937Z,33.90
2018-05-17T16:03:59.357Z,32.40
2018-05-17T16:06:27.627Z,32.10
2018-05-17T16:08:56.658Z,31.70
2018-05-17T16:11:25.143Z,31.70
2018-05-17T16:13:53.669Z,31.70
2018-05-17T16:16:22.366Z,32.50
2018-05-17T16:18:50.547Z,34.10
2018-05-17T16:21:18.725Z,35.00
2018-05-17T16:23:47.863Z,36.10
2018-05-17T16:26:16.404Z,36.50
2018-05-17T16:28:45.452Z,37.60
2018-05-17T16:31:13.630Z,38.00
2018-05-17T16:33:42.710Z,38.00
2018-05-17T16:36:11.514Z,38.00
2018-05-17T16:38:40.054Z,36.80
2018-05-17T16:41:08.903Z,36.60
2018-05-17T16:43:37.507Z,36.30
2018-05-17T16:46:05.966Z,37.00
2018-05-17T16:48:34.423Z,37.30
2018-05-17T16:51:02.539Z,37.50
2018-05-17T16:53:30.727Z,38.50
2018-05-17T16:56:00.172Z,40.60
2018-05-17T16:58:28.431Z,40.60
2018-05-17T17:00:58.755Z,42.70
2018-05-17T17:03:27.212Z,42.70
2018-05-17T17:05:55.358Z,44.50
2018-05-17T17:08:24.726Z,44.30
2018-05-17T17:10:53.211Z,45.40
2018-05-17T17:13:22.034Z,45.30
2018-05-17T17:15:50.679Z,45.00
2018-05-17T17:18:19.515Z,44.30
2018-05-17T17:20:48.106Z,45.10
2018-05-17T17:23:16.311Z,45.50
2018-05-17T17:25:44.883Z,45.80
2018-05-17T17:28:13.815Z,45.80
2018-05-17T17:30:42.686Z,45.90
2018-05-17T17:33:10.774Z,45.90
2018-05-17T17:35:39.299Z,46.50
2018-05-17T17:38:08.126Z,46.90
2018-05-17T17:40:56.404Z,48.00
2018-05-17T17:43:24.643Z,48.00
2018-05-17T17:45:54.487Z,48.80
2018-05-17T17:48:24.236Z,48.80
2018-05-17T17:50:52.805Z,49.50
2018-05-17T17:53:21.399Z,49.50
2018-05-17T17:55:50.378Z,49.80
2018-05-17T17:58:19.114Z,51.10
2018-05-17T18:00:47.952Z,50.90
2018-05-17T18:03:16.478Z,50.20
2018-05-17T18:05:45.107Z,50.30
2018-05-17T18:08:14.469Z,50.90
2018-05-17T18:10:42.681Z,51.00
2018-05-17T18:13:11.314Z,51.70
2018-05-17T18:15:40.021Z,51.30
2018-05-17T18:18:09.479Z,51.60
2018-05-17T18:20:37.933Z,51.90
2018-05-17T18:23:06.532Z,52.90
2018-05-17T18:25:34.719Z,52.20
2018-05-17T18:28:03.202Z,52.80
2018-05-17T18:30:32.335Z,53.10
2018-05-17T18:33:02.409Z,53.60
2018-05-17T18:35:31.482Z,53.60
2018-05-17T18:38:00.427Z,53.30
2018-05-17T18:40:28.614Z,53.70
2018-05-17T18:42:56.830Z,54.30
2018-05-17T18:45:25.280Z,54.10
2018-05-17T18:47:54.117Z,53.90
2018-05-17T18:50:22.942Z,53.70
2018-05-17T18:52:51.471Z,53.90
2018-05-17T18:55:22.916Z,54.40
2018-05-17T18:57:48.326Z,54.00
2018-05-17T19:00:16.926Z,54.50
2018-05-17T19:02:45.419Z,54.80
2018-05-17T19:05:13.534Z,55.00
2018-05-17T19:07:41.805Z,55.40
2018-05-17T19:10:10.187Z,55.10
2018-05-17T19:12:39.374Z,55.70
2018-05-17T19:15:07.519Z,56.60
2018-05-17T19:17:35.786Z,57.30
2018-05-17T19:20:04.220Z,56.40
2018-05-17T19:22:33.255Z,55.80
2018-05-17T19:25:01.794Z,56.40
2018-05-17T19:27:30.183Z,56.50
2018-05-17T19:29:58.367Z,57.50
2018-05-17T19:32:28.072Z,57.60
2018-05-17T19:34:56.251Z,57.80
2018-05-17T19:37:26.166Z,57.40
2018-05-17T19:39:55.259Z,57.70
2018-05-17T19:42:24.293Z,57.90
2018-05-17T19:44:52.478Z,58.00
2018-05-17T19:47:21.376Z,58.80
2018-05-17T19:49:49.519Z,59.10
2018-05-17T19:52:18.699Z,58.80
2018-05-17T19:54:47.131Z,59.40
2018-05-17T19:57:15.514Z,59.20
2018-05-17T19:59:43.977Z,59.20
2018-05-17T20:02:12.917Z,59.70
2018-05-17T20:04:41.442Z,59.30
2018-05-17T20:07:10.138Z,59.50
2018-05-17T20:09:38.662Z,59.70
2018-05-17T20:12:07.228Z,60.10
2018-05-17T20:14:35.650Z,61.70
2018-05-17T20:17:04.070Z,61.00
2018-05-17T20:19:32.479Z,60.90
2018-05-17T20:22:01.122Z,61.10
2018-05-17T20:24:31.319Z,60.70
2018-05-17T20:27:00.471Z,61.40
2018-05-17T20:29:28.892Z,61.20
2018-05-17T20:31:57.798Z,61.00
2018-05-17T20:34:26.465Z,61.80
2018-05-17T20:36:54.613Z,61.70
2018-05-17T20:39:23.203Z,62.40
2018-05-17T20:41:51.612Z,62.20
2018-05-17T20:44:20.663Z,63.00
2018-05-17T20:46:49.303Z,62.60
2018-05-17T20:49:18.142Z,63.40
2018-05-17T20:51:46.310Z,63.60
2018-05-17T20:54:15.390Z,63.80
2018-05-17T20:56:44.659Z,63.90
2018-05-17T20:59:13.185Z,63.80
2018-05-17T21:01:41.607Z,64.00
2018-05-17T21:04:11.594Z,64.30
2018-05-17T21:06:40.746Z,64.50
2018-05-17T21:09:10.406Z,65.70
2018-05-17T21:11:38.591Z,65.20
2018-05-17T21:14:07.159Z,64.80
2018-05-17T21:16:35.789Z,66.00
2018-05-17T21:19:04.210Z,65.00
2018-05-17T21:21:32.359Z,65.50
2018-05-17T21:24:01.355Z,64.90
2018-05-17T21:26:29.999Z,65.10
2018-05-17T21:28:58.417Z,65.90
2018-05-17T21:31:27.848Z,66.00
2018-05-17T21:33:56.023Z,65.30
2018-05-17T21:36:25.875Z,66.20
2018-05-17T21:38:55.236Z,66.10
2018-05-17T21:41:23.387Z,65.20
2018-05-17T21:43:51.567Z,66.10
2018-05-17T21:46:20.818Z,65.70
2018-05-17T21:48:49.443Z,65.90
2018-05-17T21:51:17.618Z,66.70
2018-05-17T21:53:46.182Z,66.60
2018-05-17T21:56:14.559Z,65.10
2018-05-17T21:58:43.434Z,65.50
2018-05-17T22:01:11.862Z,66.40
2018-05-17T22:03:41.106Z,67.00
2018-05-17T22:06:10.085Z,67.20
2018-05-17T22:08:40.350Z,66.60
2018-05-17T22:11:09.098Z,66.00
2018-05-17T22:13:37.926Z,65.90
2018-05-17T22:16:06.352Z,65.90
2018-05-17T22:18:36.568Z,66.30
2018-05-17T22:21:05.082Z,65.10
2018-05-17T22:23:33.502Z,65.90
2018-05-17T22:26:02.342Z,66.10
2018-05-17T22:28:30.494Z,66.20
2018-05-17T22:31:00.124Z,67.10
2018-05-17T22:33:28.650Z,65.70
2018-05-17T22:35:57.719Z,65.00
2018-05-17T22:38:26.223Z,64.90
2018-05-17T22:40:54.370Z,64.70
2018-05-17T22:43:23.471Z,65.00
2018-05-17T22:45:52.623Z,65.50
2018-05-17T22:48:21.670Z,65.20
2018-05-17T22:50:50.891Z,66.90
2018-05-17T22:53:19.083Z,67.50
2018-05-17T22:55:48.186Z,66.20
2018-05-17T22:58:29.879Z,67.10
2018-05-17T23:00:58.054Z,66.40
2018-05-17T23:03:26.732Z,66.90
2018-05-17T23:05:55.214Z,66.00
2018-05-17T23:08:24.407Z,65.60
2018-05-17T23:10:52.998Z,66.10
2018-05-17T23:13:22.085Z,65.60
2018-05-17T23:15:51.133Z,65.70
2018-05-17T23:18:20.063Z,66.40
2018-05-17T23:20:48.247Z,65.20
2018-05-17T23:23:16.711Z,64.80
2018-05-17T23:25:45.132Z,65.70
2018-05-17T23:28:14.286Z,65.70
2018-05-17T23:30:42.670Z,66.70
2018-05-17T23:33:11.133Z,65.80
2018-05-17T23:35:39.548Z,65.40
2018-05-17T23:38:08.909Z,65.70
2018-05-17T23:43:43.666Z,65.30
2018-05-17T23:46:12.401Z,66.20
2018-05-17T23:48:41.032Z,65.70
2018-05-17T23:51:09.230Z,66.40
2018-05-17T23:53:38.310Z,66.20
2018-05-17T23:56:07.639Z,65.00
2018-05-17T23:58:36.875Z,65.60
